sensor_id;sensor_type;location;lat;lon;timestamp;P1;durP1;ratioP1;P2;durP2;ratioP2
12681;SDS011;6405;59.208;18.216;2023-05-09T00:01:37;5.53;;;2.50;;
12681;SDS011;6405;59.208;18.216;2023-05-09T00:04:04;5.27;;;2.43;;
12681;SDS011;6405;59.208;18.216;2023-05-09T00:06:29;2.90;;;2.37;;
12681;SDS011;6405;59.208;18.216;2023-05-09T00:08:56;3.73;;;2.33;;
12681;SDS011;6405;59.208;18.216;2023-05-09T00:11:22;4.07;;;2.33;;
12681;SDS011;6405;59.208;18.216;2023-05-09T00:13:48;4.37;;;2.30;;
12681;SDS011;6405;59.208;18.216;2023-05-09T00:16:14;4.30;;;2.60;;
12681;SDS011;6405;59.208;18.216;2023-05-09T00:18:41;3.20;;;2.50;;
12681;SDS011;6405;59.208;18.216;2023-05-09T00:21:10;3.43;;;2.57;;
12681;SDS011;6405;59.208;18.216;2023-05-09T00:23:36;3.87;;;2.60;;
12681;SDS011;6405;59.208;18.216;2023-05-09T00:26:02;3.10;;;2.60;;
12681;SDS011;6405;59.208;18.216;2023-05-09T00:28:28;3.90;;;2.23;;
12681;SDS011;6405;59.208;18.216;2023-05-09T00:30:53;6.47;;;3.13;;
12681;SDS011;6405;59.208;18.216;2023-05-09T00:33:19;7.27;;;2.47;;
12681;SDS011;6405;59.208;18.216;2023-05-09T00:35:45;3.23;;;2.23;;
12681;SDS011;6405;59.208;18.216;2023-05-09T00:38:11;3.13;;;2.07;;
12681;SDS011;6405;59.208;18.216;2023-05-09T00:40:37;3.87;;;2.53;;
12681;SDS011;6405;59.208;18.216;2023-05-09T00:43:03;5.20;;;2.40;;
12681;SDS011;6405;59.208;18.216;2023-05-09T00:45:29;3.23;;;2.10;;
12681;SDS011;6405;59.208;18.216;2023-05-09T00:47:55;2.40;;;2.20;;
12681;SDS011;6405;59.208;18.216;2023-05-09T00:50:21;3.33;;;2.40;;
12681;SDS011;6405;59.208;18.216;2023-05-09T00:52:48;4.17;;;2.37;;
12681;SDS011;6405;59.208;18.216;2023-05-09T00:55:15;3.53;;;2.73;;
12681;SDS011;6405;59.208;18.216;2023-05-09T00:57:41;4.73;;;3.00;;
12681;SDS011;6405;59.208;18.216;2023-05-09T01:00:07;6.90;;;2.70;;
12681;SDS011;6405;59.208;18.216;2023-05-09T01:02:37;3.83;;;2.17;;
12681;SDS011;6405;59.208;18.216;2023-05-09T01:05:07;2.90;;;2.43;;
12681;SDS011;6405;59.208;18.216;2023-05-09T01:10:22;7.37;;;2.77;;
12681;SDS011;6405;59.208;18.216;2023-05-09T01:15:39;3.27;;;2.40;;
12681;SDS011;6405;59.208;18.216;2023-05-09T01:18:36;4.90;;;2.97;;
12681;SDS011;6405;59.208;18.216;2023-05-09T01:21:19;4.23;;;2.60;;
12681;SDS011;6405;59.208;18.216;2023-05-09T01:29:43;4.47;;;3.03;;
12681;SDS011;6405;59.208;18.216;2023-05-09T01:32:21;8.40;;;3.13;;
12681;SDS011;6405;59.208;18.216;2023-05-09T01:34:51;4.17;;;2.90;;
12681;SDS011;6405;59.208;18.216;2023-05-09T01:37:21;7.13;;;5.47;;
12681;SDS011;6405;59.208;18.216;2023-05-09T01:39:52;6.40;;;3.50;;
12681;SDS011;6405;59.208;18.216;2023-05-09T01:42:22;8.03;;;2.90;;
12681;SDS011;6405;59.208;18.216;2023-05-09T01:44:51;6.63;;;3.93;;
12681;SDS011;6405;59.208;18.216;2023-05-09T01:47:18;6.73;;;3.73;;
12681;SDS011;6405;59.208;18.216;2023-05-09T01:49:45;9.03;;;4.10;;
12681;SDS011;6405;59.208;18.216;2023-05-09T01:52:12;7.70;;;4.63;;
12681;SDS011;6405;59.208;18.216;2023-05-09T01:54:42;8.73;;;4.50;;
12681;SDS011;6405;59.208;18.216;2023-05-09T01:57:09;10.00;;;5.57;;
12681;SDS011;6405;59.208;18.216;2023-05-09T01:59:36;10.33;;;5.17;;
12681;SDS011;6405;59.208;18.216;2023-05-09T02:02:05;9.00;;;4.93;;
12681;SDS011;6405;59.208;18.216;2023-05-09T02:04:31;8.97;;;5.20;;
12681;SDS011;6405;59.208;18.216;2023-05-09T02:06:59;11.23;;;5.63;;
12681;SDS011;6405;59.208;18.216;2023-05-09T02:09:26;9.27;;;6.00;;
12681;SDS011;6405;59.208;18.216;2023-05-09T02:11:52;7.90;;;4.70;;
12681;SDS011;6405;59.208;18.216;2023-05-09T02:14:18;11.17;;;6.20;;
12681;SDS011;6405;59.208;18.216;2023-05-09T02:16:44;8.83;;;5.90;;
12681;SDS011;6405;59.208;18.216;2023-05-09T02:19:10;9.07;;;5.53;;
12681;SDS011;6405;59.208;18.216;2023-05-09T02:21:35;10.53;;;5.40;;
12681;SDS011;6405;59.208;18.216;2023-05-09T02:24:01;11.67;;;6.53;;
12681;SDS011;6405;59.208;18.216;2023-05-09T02:26:27;9.77;;;6.87;;
12681;SDS011;6405;59.208;18.216;2023-05-09T02:28:53;13.00;;;6.97;;
12681;SDS011;6405;59.208;18.216;2023-05-09T02:31:20;14.93;;;7.60;;
12681;SDS011;6405;59.208;18.216;2023-05-09T02:33:48;9.17;;;6.57;;
12681;SDS011;6405;59.208;18.216;2023-05-09T02:36:15;16.60;;;8.37;;
12681;SDS011;6405;59.208;18.216;2023-05-09T02:38:42;11.50;;;7.30;;
12681;SDS011;6405;59.208;18.216;2023-05-09T02:41:15;11.73;;;8.47;;
12681;SDS011;6405;59.208;18.216;2023-05-09T02:43:41;11.67;;;7.37;;
12681;SDS011;6405;59.208;18.216;2023-05-09T02:46:07;17.47;;;8.77;;
12681;SDS011;6405;59.208;18.216;2023-05-09T02:48:34;10.93;;;7.33;;
12681;SDS011;6405;59.208;18.216;2023-05-09T02:51:00;9.30;;;6.23;;
12681;SDS011;6405;59.208;18.216;2023-05-09T02:53:26;12.70;;;8.40;;
12681;SDS011;6405;59.208;18.216;2023-05-09T02:55:52;12.80;;;7.23;;
12681;SDS011;6405;59.208;18.216;2023-05-09T02:58:18;9.70;;;7.17;;
12681;SDS011;6405;59.208;18.216;2023-05-09T03:00:44;15.97;;;7.93;;
12681;SDS011;6405;59.208;18.216;2023-05-09T03:03:10;10.67;;;7.80;;
12681;SDS011;6405;59.208;18.216;2023-05-09T03:05:35;14.23;;;8.53;;
12681;SDS011;6405;59.208;18.216;2023-05-09T03:08:01;16.97;;;9.37;;
12681;SDS011;6405;59.208;18.216;2023-05-09T03:10:27;14.23;;;7.80;;
12681;SDS011;6405;59.208;18.216;2023-05-09T03:12:53;13.60;;;7.60;;
12681;SDS011;6405;59.208;18.216;2023-05-09T03:15:19;15.50;;;7.00;;
12681;SDS011;6405;59.208;18.216;2023-05-09T03:17:45;15.33;;;8.37;;
12681;SDS011;6405;59.208;18.216;2023-05-09T03:20:11;14.20;;;8.20;;
12681;SDS011;6405;59.208;18.216;2023-05-09T03:22:37;12.47;;;7.87;;
12681;SDS011;6405;59.208;18.216;2023-05-09T03:25:02;13.10;;;8.50;;
12681;SDS011;6405;59.208;18.216;2023-05-09T03:27:28;14.87;;;8.87;;
12681;SDS011;6405;59.208;18.216;2023-05-09T03:29:54;17.60;;;9.23;;
12681;SDS011;6405;59.208;18.216;2023-05-09T03:32:20;16.73;;;8.70;;
12681;SDS011;6405;59.208;18.216;2023-05-09T03:34:45;15.93;;;9.47;;
12681;SDS011;6405;59.208;18.216;2023-05-09T03:37:11;14.13;;;9.37;;
12681;SDS011;6405;59.208;18.216;2023-05-09T03:39:37;14.90;;;9.67;;
12681;SDS011;6405;59.208;18.216;2023-05-09T03:42:02;21.27;;;9.97;;
12681;SDS011;6405;59.208;18.216;2023-05-09T03:44:28;15.37;;;9.40;;
12681;SDS011;6405;59.208;18.216;2023-05-09T03:46:54;19.47;;;9.87;;
12681;SDS011;6405;59.208;18.216;2023-05-09T03:49:19;15.67;;;9.37;;
12681;SDS011;6405;59.208;18.216;2023-05-09T03:51:45;19.07;;;8.50;;
12681;SDS011;6405;59.208;18.216;2023-05-09T03:54:11;16.00;;;9.03;;
12681;SDS011;6405;59.208;18.216;2023-05-09T03:56:36;19.90;;;10.33;;
12681;SDS011;6405;59.208;18.216;2023-05-09T03:59:02;17.13;;;9.57;;
12681;SDS011;6405;59.208;18.216;2023-05-09T04:01:28;15.17;;;9.37;;
12681;SDS011;6405;59.208;18.216;2023-05-09T04:03:54;19.73;;;9.23;;
12681;SDS011;6405;59.208;18.216;2023-05-09T04:06:21;14.60;;;8.90;;
12681;SDS011;6405;59.208;18.216;2023-05-09T04:08:47;18.17;;;8.53;;
12681;SDS011;6405;59.208;18.216;2023-05-09T04:11:13;17.07;;;8.23;;
12681;SDS011;6405;59.208;18.216;2023-05-09T04:13:39;13.60;;;8.07;;
12681;SDS011;6405;59.208;18.216;2023-05-09T04:16:05;12.67;;;8.17;;
12681;SDS011;6405;59.208;18.216;2023-05-09T04:18:30;12.27;;;8.47;;
12681;SDS011;6405;59.208;18.216;2023-05-09T04:20:56;13.63;;;7.83;;
12681;SDS011;6405;59.208;18.216;2023-05-09T04:23:21;13.57;;;8.37;;
12681;SDS011;6405;59.208;18.216;2023-05-09T04:25:47;15.03;;;7.53;;
12681;SDS011;6405;59.208;18.216;2023-05-09T04:28:15;14.10;;;8.40;;
12681;SDS011;6405;59.208;18.216;2023-05-09T04:30:41;10.37;;;6.80;;
12681;SDS011;6405;59.208;18.216;2023-05-09T04:33:06;12.13;;;7.63;;
12681;SDS011;6405;59.208;18.216;2023-05-09T04:35:32;9.10;;;6.43;;
12681;SDS011;6405;59.208;18.216;2023-05-09T04:37:57;10.40;;;6.93;;
12681;SDS011;6405;59.208;18.216;2023-05-09T04:40:23;10.60;;;5.67;;
12681;SDS011;6405;59.208;18.216;2023-05-09T04:42:49;7.60;;;5.57;;
12681;SDS011;6405;59.208;18.216;2023-05-09T04:45:15;8.93;;;5.90;;
12681;SDS011;6405;59.208;18.216;2023-05-09T04:47:41;7.27;;;5.80;;
12681;SDS011;6405;59.208;18.216;2023-05-09T04:50:07;10.43;;;5.87;;
12681;SDS011;6405;59.208;18.216;2023-05-09T04:52:33;7.93;;;5.57;;
12681;SDS011;6405;59.208;18.216;2023-05-09T04:54:59;7.53;;;4.90;;
12681;SDS011;6405;59.208;18.216;2023-05-09T04:57:25;10.43;;;5.13;;
12681;SDS011;6405;59.208;18.216;2023-05-09T04:59:50;9.07;;;4.73;;
12681;SDS011;6405;59.208;18.216;2023-05-09T05:02:16;6.73;;;4.10;;
12681;SDS011;6405;59.208;18.216;2023-05-09T05:04:42;8.67;;;5.00;;
12681;SDS011;6405;59.208;18.216;2023-05-09T05:07:08;5.40;;;4.40;;
12681;SDS011;6405;59.208;18.216;2023-05-09T05:09:34;7.63;;;4.30;;
12681;SDS011;6405;59.208;18.216;2023-05-09T05:11:59;5.60;;;4.10;;
12681;SDS011;6405;59.208;18.216;2023-05-09T05:14:25;7.90;;;4.53;;
12681;SDS011;6405;59.208;18.216;2023-05-09T05:16:50;7.27;;;4.70;;
12681;SDS011;6405;59.208;18.216;2023-05-09T05:19:16;6.47;;;4.17;;
12681;SDS011;6405;59.208;18.216;2023-05-09T05:21:42;6.33;;;3.93;;
12681;SDS011;6405;59.208;18.216;2023-05-09T05:24:08;7.30;;;4.20;;
12681;SDS011;6405;59.208;18.216;2023-05-09T05:26:33;8.40;;;3.90;;
12681;SDS011;6405;59.208;18.216;2023-05-09T05:28:59;11.63;;;4.60;;
12681;SDS011;6405;59.208;18.216;2023-05-09T05:31:24;4.80;;;4.03;;
12681;SDS011;6405;59.208;18.216;2023-05-09T05:33:50;5.40;;;3.70;;
12681;SDS011;6405;59.208;18.216;2023-05-09T05:36:16;5.57;;;3.90;;
12681;SDS011;6405;59.208;18.216;2023-05-09T05:38:41;6.30;;;3.57;;
12681;SDS011;6405;59.208;18.216;2023-05-09T05:41:07;10.03;;;3.47;;
12681;SDS011;6405;59.208;18.216;2023-05-09T05:43:35;6.77;;;3.63;;
12681;SDS011;6405;59.208;18.216;2023-05-09T05:46:01;7.43;;;3.33;;
12681;SDS011;6405;59.208;18.216;2023-05-09T05:48:27;7.77;;;4.03;;
12681;SDS011;6405;59.208;18.216;2023-05-09T05:50:52;7.17;;;3.50;;
12681;SDS011;6405;59.208;18.216;2023-05-09T05:53:18;4.83;;;3.53;;
12681;SDS011;6405;59.208;18.216;2023-05-09T05:55:44;5.20;;;3.50;;
12681;SDS011;6405;59.208;18.216;2023-05-09T05:58:10;7.50;;;3.80;;
12681;SDS011;6405;59.208;18.216;2023-05-09T06:00:36;5.07;;;3.53;;
12681;SDS011;6405;59.208;18.216;2023-05-09T06:03:02;6.13;;;3.57;;
12681;SDS011;6405;59.208;18.216;2023-05-09T06:05:27;7.37;;;3.63;;
12681;SDS011;6405;59.208;18.216;2023-05-09T06:07:53;5.20;;;2.90;;
12681;SDS011;6405;59.208;18.216;2023-05-09T06:10:18;4.07;;;3.17;;
12681;SDS011;6405;59.208;18.216;2023-05-09T06:12:44;4.50;;;3.10;;
12681;SDS011;6405;59.208;18.216;2023-05-09T06:15:10;5.33;;;3.20;;
12681;SDS011;6405;59.208;18.216;2023-05-09T06:17:35;3.80;;;2.93;;
12681;SDS011;6405;59.208;18.216;2023-05-09T06:20:01;6.73;;;2.87;;
12681;SDS011;6405;59.208;18.216;2023-05-09T06:22:27;9.50;;;3.23;;
12681;SDS011;6405;59.208;18.216;2023-05-09T06:24:53;4.53;;;2.93;;
12681;SDS011;6405;59.208;18.216;2023-05-09T06:27:18;6.33;;;3.50;;
12681;SDS011;6405;59.208;18.216;2023-05-09T06:29:44;6.40;;;3.57;;
12681;SDS011;6405;59.208;18.216;2023-05-09T06:32:10;7.93;;;3.40;;
12681;SDS011;6405;59.208;18.216;2023-05-09T06:34:35;4.77;;;3.00;;
12681;SDS011;6405;59.208;18.216;2023-05-09T06:37:01;4.97;;;2.90;;
12681;SDS011;6405;59.208;18.216;2023-05-09T06:39:27;3.70;;;2.80;;
12681;SDS011;6405;59.208;18.216;2023-05-09T06:41:52;6.03;;;3.33;;
12681;SDS011;6405;59.208;18.216;2023-05-09T06:44:18;5.33;;;2.63;;
12681;SDS011;6405;59.208;18.216;2023-05-09T06:46:44;9.70;;;3.00;;
12681;SDS011;6405;59.208;18.216;2023-05-09T06:49:09;5.93;;;2.47;;
12681;SDS011;6405;59.208;18.216;2023-05-09T06:51:37;4.00;;;2.57;;
12681;SDS011;6405;59.208;18.216;2023-05-09T06:54:03;5.37;;;2.60;;
12681;SDS011;6405;59.208;18.216;2023-05-09T06:56:28;4.23;;;2.50;;
12681;SDS011;6405;59.208;18.216;2023-05-09T06:58:55;5.20;;;2.53;;
12681;SDS011;6405;59.208;18.216;2023-05-09T07:01:20;3.13;;;2.33;;
12681;SDS011;6405;59.208;18.216;2023-05-09T07:03:46;4.43;;;2.63;;
12681;SDS011;6405;59.208;18.216;2023-05-09T07:06:12;4.60;;;2.40;;
12681;SDS011;6405;59.208;18.216;2023-05-09T07:08:38;5.37;;;2.67;;
12681;SDS011;6405;59.208;18.216;2023-05-09T07:11:04;4.80;;;2.67;;
12681;SDS011;6405;59.208;18.216;2023-05-09T07:13:30;7.60;;;3.03;;
12681;SDS011;6405;59.208;18.216;2023-05-09T07:15:55;5.97;;;2.67;;
12681;SDS011;6405;59.208;18.216;2023-05-09T07:18:21;2.30;;;2.10;;
12681;SDS011;6405;59.208;18.216;2023-05-09T07:20:47;5.37;;;2.70;;
12681;SDS011;6405;59.208;18.216;2023-05-09T07:23:13;5.03;;;2.87;;
12681;SDS011;6405;59.208;18.216;2023-05-09T07:25:38;3.93;;;2.70;;
12681;SDS011;6405;59.208;18.216;2023-05-09T07:28:04;3.23;;;2.40;;
12681;SDS011;6405;59.208;18.216;2023-05-09T07:30:30;5.50;;;2.90;;
12681;SDS011;6405;59.208;18.216;2023-05-09T07:32:55;5.50;;;2.57;;
12681;SDS011;6405;59.208;18.216;2023-05-09T07:35:21;5.50;;;2.33;;
12681;SDS011;6405;59.208;18.216;2023-05-09T07:37:47;4.17;;;2.50;;
12681;SDS011;6405;59.208;18.216;2023-05-09T07:40:12;4.77;;;2.97;;
12681;SDS011;6405;59.208;18.216;2023-05-09T07:42:38;5.70;;;2.53;;
12681;SDS011;6405;59.208;18.216;2023-05-09T07:45:04;3.77;;;2.83;;
12681;SDS011;6405;59.208;18.216;2023-05-09T07:47:31;6.60;;;2.87;;
12681;SDS011;6405;59.208;18.216;2023-05-09T07:49:57;4.27;;;2.30;;
12681;SDS011;6405;59.208;18.216;2023-05-09T07:52:22;4.07;;;2.73;;
12681;SDS011;6405;59.208;18.216;2023-05-09T07:54:48;3.90;;;2.60;;
12681;SDS011;6405;59.208;18.216;2023-05-09T07:57:14;4.70;;;2.47;;
12681;SDS011;6405;59.208;18.216;2023-05-09T07:59:40;4.47;;;2.40;;
12681;SDS011;6405;59.208;18.216;2023-05-09T08:02:06;5.17;;;2.60;;
12681;SDS011;6405;59.208;18.216;2023-05-09T08:04:32;2.43;;;2.00;;
12681;SDS011;6405;59.208;18.216;2023-05-09T08:07:01;3.23;;;2.40;;
12681;SDS011;6405;59.208;18.216;2023-05-09T08:09:28;5.80;;;2.50;;
12681;SDS011;6405;59.208;18.216;2023-05-09T08:11:53;3.43;;;2.40;;
12681;SDS011;6405;59.208;18.216;2023-05-09T08:14:19;3.87;;;2.30;;
12681;SDS011;6405;59.208;18.216;2023-05-09T08:16:44;4.77;;;2.10;;
12681;SDS011;6405;59.208;18.216;2023-05-09T08:19:10;2.77;;;2.37;;
12681;SDS011;6405;59.208;18.216;2023-05-09T08:21:36;7.57;;;2.37;;
12681;SDS011;6405;59.208;18.216;2023-05-09T08:24:01;5.53;;;2.83;;
12681;SDS011;6405;59.208;18.216;2023-05-09T08:26:27;4.10;;;2.50;;
12681;SDS011;6405;59.208;18.216;2023-05-09T08:28:53;2.60;;;1.97;;
12681;SDS011;6405;59.208;18.216;2023-05-09T08:31:19;3.43;;;1.93;;
12681;SDS011;6405;59.208;18.216;2023-05-09T08:33:44;2.57;;;1.87;;
12681;SDS011;6405;59.208;18.216;2023-05-09T08:36:10;2.60;;;1.70;;
12681;SDS011;6405;59.208;18.216;2023-05-09T08:38:35;2.80;;;2.10;;
12681;SDS011;6405;59.208;18.216;2023-05-09T08:41:04;3.83;;;2.07;;
12681;SDS011;6405;59.208;18.216;2023-05-09T08:43:30;4.10;;;1.80;;
12681;SDS011;6405;59.208;18.216;2023-05-09T08:45:58;2.47;;;1.90;;
12681;SDS011;6405;59.208;18.216;2023-05-09T08:48:27;4.50;;;1.97;;
12681;SDS011;6405;59.208;18.216;2023-05-09T08:50:54;4.00;;;1.80;;
12681;SDS011;6405;59.208;18.216;2023-05-09T08:53:20;4.33;;;2.40;;
12681;SDS011;6405;59.208;18.216;2023-05-09T08:55:49;4.43;;;1.97;;
12681;SDS011;6405;59.208;18.216;2023-05-09T08:58:17;3.53;;;1.80;;
12681;SDS011;6405;59.208;18.216;2023-05-09T09:00:43;3.87;;;2.33;;
12681;SDS011;6405;59.208;18.216;2023-05-09T09:03:11;2.53;;;1.83;;
12681;SDS011;6405;59.208;18.216;2023-05-09T09:05:37;2.37;;;2.00;;
12681;SDS011;6405;59.208;18.216;2023-05-09T09:08:06;2.80;;;2.03;;
12681;SDS011;6405;59.208;18.216;2023-05-09T09:10:33;3.67;;;2.00;;
12681;SDS011;6405;59.208;18.216;2023-05-09T09:12:59;5.23;;;2.37;;
12681;SDS011;6405;59.208;18.216;2023-05-09T09:15:29;3.47;;;2.40;;
12681;SDS011;6405;59.208;18.216;2023-05-09T09:17:59;2.70;;;2.00;;
12681;SDS011;6405;59.208;18.216;2023-05-09T09:20:30;4.60;;;2.60;;
12681;SDS011;6405;59.208;18.216;2023-05-09T09:22:58;3.63;;;1.87;;
12681;SDS011;6405;59.208;18.216;2023-05-09T09:25:26;4.57;;;2.20;;
12681;SDS011;6405;59.208;18.216;2023-05-09T09:27:51;5.47;;;2.40;;
12681;SDS011;6405;59.208;18.216;2023-05-09T09:30:17;2.87;;;2.57;;
12681;SDS011;6405;59.208;18.216;2023-05-09T09:32:43;2.57;;;2.37;;
12681;SDS011;6405;59.208;18.216;2023-05-09T09:35:09;3.40;;;2.37;;
12681;SDS011;6405;59.208;18.216;2023-05-09T09:37:36;5.47;;;2.80;;
12681;SDS011;6405;59.208;18.216;2023-05-09T09:40:06;6.50;;;2.23;;
12681;SDS011;6405;59.208;18.216;2023-05-09T09:42:45;6.30;;;2.50;;
12681;SDS011;6405;59.208;18.216;2023-05-09T09:45:15;4.43;;;2.50;;
12681;SDS011;6405;59.208;18.216;2023-05-09T09:47:42;2.67;;;2.27;;
12681;SDS011;6405;59.208;18.216;2023-05-09T09:50:09;5.53;;;2.73;;
12681;SDS011;6405;59.208;18.216;2023-05-09T09:52:48;4.67;;;2.40;;
12681;SDS011;6405;59.208;18.216;2023-05-09T09:55:16;4.10;;;2.43;;
12681;SDS011;6405;59.208;18.216;2023-05-09T09:57:42;3.27;;;2.30;;
12681;SDS011;6405;59.208;18.216;2023-05-09T10:00:12;3.37;;;2.60;;
12681;SDS011;6405;59.208;18.216;2023-05-09T10:02:50;3.87;;;2.20;;
12681;SDS011;6405;59.208;18.216;2023-05-09T10:05:24;4.73;;;2.13;;
12681;SDS011;6405;59.208;18.216;2023-05-09T10:10:20;5.23;;;2.13;;
12681;SDS011;6405;59.208;18.216;2023-05-09T10:12:46;4.53;;;2.10;;
12681;SDS011;6405;59.208;18.216;2023-05-09T10:15:15;4.07;;;2.30;;
12681;SDS011;6405;59.208;18.216;2023-05-09T10:17:44;2.63;;;2.33;;
12681;SDS011;6405;59.208;18.216;2023-05-09T10:20:09;5.53;;;2.40;;
12681;SDS011;6405;59.208;18.216;2023-05-09T10:22:38;2.07;;;1.63;;
12681;SDS011;6405;59.208;18.216;2023-05-09T10:25:05;3.60;;;1.90;;
12681;SDS011;6405;59.208;18.216;2023-05-09T10:27:37;3.17;;;2.30;;
12681;SDS011;6405;59.208;18.216;2023-05-09T10:30:18;2.83;;;1.80;;
12681;SDS011;6405;59.208;18.216;2023-05-09T10:32:57;4.97;;;2.47;;
12681;SDS011;6405;59.208;18.216;2023-05-09T10:35:35;2.80;;;2.20;;
12681;SDS011;6405;59.208;18.216;2023-05-09T10:38:03;2.43;;;2.13;;
12681;SDS011;6405;59.208;18.216;2023-05-09T10:40:31;2.80;;;2.20;;
12681;SDS011;6405;59.208;18.216;2023-05-09T10:42:58;2.57;;;1.97;;
12681;SDS011;6405;59.208;18.216;2023-05-09T10:45:24;2.87;;;2.40;;
12681;SDS011;6405;59.208;18.216;2023-05-09T10:47:50;4.83;;;2.20;;
12681;SDS011;6405;59.208;18.216;2023-05-09T10:50:18;3.77;;;2.40;;
12681;SDS011;6405;59.208;18.216;2023-05-09T10:53:04;12.93;;;2.20;;
12681;SDS011;6405;59.208;18.216;2023-05-09T10:55:34;2.63;;;2.43;;
12681;SDS011;6405;59.208;18.216;2023-05-09T10:58:05;2.43;;;2.17;;
12681;SDS011;6405;59.208;18.216;2023-05-09T11:00:48;3.40;;;2.00;;
12681;SDS011;6405;59.208;18.216;2023-05-09T11:03:15;3.87;;;2.30;;
12681;SDS011;6405;59.208;18.216;2023-05-09T11:05:43;2.70;;;2.30;;
12681;SDS011;6405;59.208;18.216;2023-05-09T11:10:55;7.10;;;2.50;;
12681;SDS011;6405;59.208;18.216;2023-05-09T11:13:29;3.43;;;2.30;;
12681;SDS011;6405;59.208;18.216;2023-05-09T11:18:27;2.70;;;2.20;;
12681;SDS011;6405;59.208;18.216;2023-05-09T11:20:53;6.77;;;2.37;;
12681;SDS011;6405;59.208;18.216;2023-05-09T11:23:20;3.10;;;2.03;;
12681;SDS011;6405;59.208;18.216;2023-05-09T11:25:49;2.77;;;2.20;;
12681;SDS011;6405;59.208;18.216;2023-05-09T11:28:28;4.60;;;2.30;;
12681;SDS011;6405;59.208;18.216;2023-05-09T11:31:14;3.27;;;2.63;;
12681;SDS011;6405;59.208;18.216;2023-05-09T11:33:41;2.90;;;2.43;;
12681;SDS011;6405;59.208;18.216;2023-05-09T11:36:18;4.63;;;2.60;;
12681;SDS011;6405;59.208;18.216;2023-05-09T11:41:30;6.67;;;3.07;;
12681;SDS011;6405;59.208;18.216;2023-05-09T11:44:08;4.20;;;3.20;;
12681;SDS011;6405;59.208;18.216;2023-05-09T11:46:40;4.10;;;2.97;;
12681;SDS011;6405;59.208;18.216;2023-05-09T11:49:06;7.37;;;3.53;;
12681;SDS011;6405;59.208;18.216;2023-05-09T11:51:34;7.97;;;3.50;;
12681;SDS011;6405;59.208;18.216;2023-05-09T11:54:02;6.37;;;3.60;;
12681;SDS011;6405;59.208;18.216;2023-05-09T11:56:30;4.23;;;3.03;;
12681;SDS011;6405;59.208;18.216;2023-05-09T11:58:55;7.67;;;3.40;;
12681;SDS011;6405;59.208;18.216;2023-05-09T12:01:22;5.00;;;2.93;;
12681;SDS011;6405;59.208;18.216;2023-05-09T12:03:48;3.97;;;3.10;;
12681;SDS011;6405;59.208;18.216;2023-05-09T12:06:16;7.63;;;3.57;;
12681;SDS011;6405;59.208;18.216;2023-05-09T12:08:45;5.13;;;3.90;;
12681;SDS011;6405;59.208;18.216;2023-05-09T12:11:11;4.40;;;3.30;;
12681;SDS011;6405;59.208;18.216;2023-05-09T12:13:48;4.63;;;3.13;;
12681;SDS011;6405;59.208;18.216;2023-05-09T12:16:17;7.23;;;3.40;;
12681;SDS011;6405;59.208;18.216;2023-05-09T12:18:47;5.33;;;3.57;;
12681;SDS011;6405;59.208;18.216;2023-05-09T12:21:14;5.10;;;3.30;;
12681;SDS011;6405;59.208;18.216;2023-05-09T12:23:40;7.03;;;3.67;;
12681;SDS011;6405;59.208;18.216;2023-05-09T12:26:06;6.43;;;3.83;;
12681;SDS011;6405;59.208;18.216;2023-05-09T12:28:32;7.50;;;4.03;;
12681;SDS011;6405;59.208;18.216;2023-05-09T12:30:58;6.20;;;3.70;;
12681;SDS011;6405;59.208;18.216;2023-05-09T12:33:25;7.73;;;3.97;;
12681;SDS011;6405;59.208;18.216;2023-05-09T12:36:10;4.80;;;3.40;;
12681;SDS011;6405;59.208;18.216;2023-05-09T12:38:36;6.33;;;3.80;;
12681;SDS011;6405;59.208;18.216;2023-05-09T12:41:03;8.30;;;3.80;;
12681;SDS011;6405;59.208;18.216;2023-05-09T12:43:33;5.87;;;3.30;;
12681;SDS011;6405;59.208;18.216;2023-05-09T12:46:03;5.77;;;3.30;;
12681;SDS011;6405;59.208;18.216;2023-05-09T12:48:33;5.00;;;3.07;;
12681;SDS011;6405;59.208;18.216;2023-05-09T12:51:02;6.03;;;3.30;;
12681;SDS011;6405;59.208;18.216;2023-05-09T12:53:35;5.73;;;2.70;;
12681;SDS011;6405;59.208;18.216;2023-05-09T12:56:14;4.90;;;2.80;;
12681;SDS011;6405;59.208;18.216;2023-05-09T12:58:51;3.60;;;2.77;;
12681;SDS011;6405;59.208;18.216;2023-05-09T13:01:19;7.03;;;3.50;;
12681;SDS011;6405;59.208;18.216;2023-05-09T13:04:07;6.03;;;3.00;;
12681;SDS011;6405;59.208;18.216;2023-05-09T13:06:32;4.40;;;3.27;;
12681;SDS011;6405;59.208;18.216;2023-05-09T13:09:00;3.90;;;3.30;;
12681;SDS011;6405;59.208;18.216;2023-05-09T13:11:29;6.30;;;3.63;;
12681;SDS011;6405;59.208;18.216;2023-05-09T13:13:55;4.00;;;2.77;;
12681;SDS011;6405;59.208;18.216;2023-05-09T13:16:21;5.30;;;3.10;;
12681;SDS011;6405;59.208;18.216;2023-05-09T13:18:47;4.83;;;3.30;;
12681;SDS011;6405;59.208;18.216;2023-05-09T13:21:12;4.63;;;3.20;;
12681;SDS011;6405;59.208;18.216;2023-05-09T13:23:38;3.90;;;2.97;;
12681;SDS011;6405;59.208;18.216;2023-05-09T13:26:05;3.40;;;2.87;;
12681;SDS011;6405;59.208;18.216;2023-05-09T13:28:31;5.97;;;3.20;;
12681;SDS011;6405;59.208;18.216;2023-05-09T13:30:57;7.10;;;3.07;;
12681;SDS011;6405;59.208;18.216;2023-05-09T13:33:23;4.10;;;2.73;;
12681;SDS011;6405;59.208;18.216;2023-05-09T13:35:48;4.00;;;2.53;;
12681;SDS011;6405;59.208;18.216;2023-05-09T13:38:14;3.30;;;2.80;;
12681;SDS011;6405;59.208;18.216;2023-05-09T13:40:40;3.50;;;2.60;;
12681;SDS011;6405;59.208;18.216;2023-05-09T13:43:06;5.53;;;2.80;;
12681;SDS011;6405;59.208;18.216;2023-05-09T13:45:31;6.83;;;2.70;;
12681;SDS011;6405;59.208;18.216;2023-05-09T13:47:57;5.77;;;2.93;;
12681;SDS011;6405;59.208;18.216;2023-05-09T13:50:23;4.13;;;2.80;;
12681;SDS011;6405;59.208;18.216;2023-05-09T13:52:48;5.03;;;3.30;;
12681;SDS011;6405;59.208;18.216;2023-05-09T13:55:14;5.27;;;2.90;;
12681;SDS011;6405;59.208;18.216;2023-05-09T13:57:40;4.60;;;2.77;;
12681;SDS011;6405;59.208;18.216;2023-05-09T14:00:06;8.47;;;3.13;;
12681;SDS011;6405;59.208;18.216;2023-05-09T14:02:33;4.47;;;2.87;;
12681;SDS011;6405;59.208;18.216;2023-05-09T14:04:58;3.13;;;2.67;;
12681;SDS011;6405;59.208;18.216;2023-05-09T14:07:26;3.53;;;2.63;;
12681;SDS011;6405;59.208;18.216;2023-05-09T14:09:52;6.17;;;3.20;;
12681;SDS011;6405;59.208;18.216;2023-05-09T14:12:18;4.70;;;2.87;;
12681;SDS011;6405;59.208;18.216;2023-05-09T14:14:43;5.60;;;2.70;;
12681;SDS011;6405;59.208;18.216;2023-05-09T14:17:09;4.60;;;2.90;;
12681;SDS011;6405;59.208;18.216;2023-05-09T14:19:35;5.77;;;3.07;;
12681;SDS011;6405;59.208;18.216;2023-05-09T14:22:00;5.20;;;3.20;;
12681;SDS011;6405;59.208;18.216;2023-05-09T14:24:26;5.43;;;3.00;;
12681;SDS011;6405;59.208;18.216;2023-05-09T14:26:54;3.10;;;2.80;;
12681;SDS011;6405;59.208;18.216;2023-05-09T14:29:20;7.93;;;2.80;;
12681;SDS011;6405;59.208;18.216;2023-05-09T14:31:46;4.33;;;2.70;;
12681;SDS011;6405;59.208;18.216;2023-05-09T14:34:12;5.40;;;2.83;;
12681;SDS011;6405;59.208;18.216;2023-05-09T14:36:38;8.97;;;3.10;;
12681;SDS011;6405;59.208;18.216;2023-05-09T14:39:03;7.63;;;3.07;;
12681;SDS011;6405;59.208;18.216;2023-05-09T14:41:30;5.47;;;3.30;;
12681;SDS011;6405;59.208;18.216;2023-05-09T14:43:56;6.30;;;3.63;;
12681;SDS011;6405;59.208;18.216;2023-05-09T14:46:22;4.00;;;3.03;;
12681;SDS011;6405;59.208;18.216;2023-05-09T14:48:49;7.30;;;3.90;;
12681;SDS011;6405;59.208;18.216;2023-05-09T14:51:15;5.07;;;3.20;;
12681;SDS011;6405;59.208;18.216;2023-05-09T14:53:41;4.47;;;3.40;;
12681;SDS011;6405;59.208;18.216;2023-05-09T14:56:07;5.30;;;3.70;;
12681;SDS011;6405;59.208;18.216;2023-05-09T14:58:35;4.67;;;2.97;;
12681;SDS011;6405;59.208;18.216;2023-05-09T15:01:01;6.40;;;3.70;;
12681;SDS011;6405;59.208;18.216;2023-05-09T15:03:28;5.90;;;3.50;;
12681;SDS011;6405;59.208;18.216;2023-05-09T15:05:53;5.60;;;3.73;;
12681;SDS011;6405;59.208;18.216;2023-05-09T15:08:19;4.43;;;2.77;;